createdAt,value
2018-09-06T00:01:06.202Z,8.83
2018-09-06T00:03:34.183Z,8.00
2018-09-06T00:06:02.227Z,8.23
2018-09-06T00:08:30.327Z,7.93
2018-09-06T00:10:58.394Z,9.10
2018-09-06T00:13:27.018Z,8.90
2018-09-06T00:15:55.014Z,9.03
2018-09-06T00:18:23.235Z,8.50
2018-09-06T00:20:51.229Z,8.53
2018-09-06T00:23:19.284Z,8.40
2018-09-06T00:25:47.329Z,8.20
2018-09-06T00:28:15.201Z,7.90
2018-09-06T00:30:43.204Z,8.10
2018-09-06T00:33:11.135Z,8.33
2018-09-06T00:35:39.136Z,8.30
2018-09-06T00:38:07.174Z,9.10
2018-09-06T00:40:35.234Z,7.53
2018-09-06T00:43:03.309Z,8.43
2018-09-06T00:45:31.266Z,8.17
2018-09-06T00:47:59.309Z,8.40
2018-09-06T00:50:31.800Z,7.80
2018-09-06T00:53:00.289Z,7.93
2018-09-06T00:55:28.248Z,8.63
2018-09-06T00:57:56.172Z,7.80
2018-09-06T01:00:24.514Z,8.83
2018-09-06T01:02:53.261Z,7.93
2018-09-06T01:05:21.435Z,9.00
2018-09-06T01:07:49.483Z,8.60
2018-09-06T01:10:17.345Z,8.77
2018-09-06T01:12:45.326Z,7.90
2018-09-06T01:15:13.250Z,8.57
2018-09-06T01:17:41.265Z,8.80
2018-09-06T01:20:09.384Z,8.10
2018-09-06T01:22:37.836Z,8.33
2018-09-06T01:25:06.282Z,8.50
2018-09-06T01:27:34.244Z,7.40
2018-09-06T01:30:02.124Z,8.23
2018-09-06T01:32:30.055Z,7.70
2018-09-06T01:34:58.271Z,8.50
2018-09-06T01:37:26.452Z,8.20
2018-09-06T01:39:55.136Z,8.50
2018-09-06T01:42:23.193Z,8.23
2018-09-06T01:44:51.236Z,8.50
2018-09-06T01:47:19.283Z,9.00
2018-09-06T01:49:47.621Z,8.10
2018-09-06T01:52:15.590Z,7.10
2018-09-06T01:54:43.603Z,8.50
2018-09-06T01:57:11.931Z,8.00
2018-09-06T01:59:40.594Z,7.93
2018-09-06T02:02:08.987Z,7.60
2018-09-06T02:04:37.735Z,7.60
2018-09-06T02:07:06.362Z,7.43
2018-09-06T02:09:35.672Z,7.80
2018-09-06T02:12:04.120Z,8.20
2018-09-06T02:14:32.224Z,7.60
2018-09-06T02:17:00.479Z,8.37
2018-09-06T02:19:28.686Z,7.33
2018-09-06T02:21:56.936Z,7.63
2018-09-06T02:24:25.084Z,7.73
2018-09-06T02:26:53.064Z,7.60
2018-09-06T02:29:21.501Z,8.00
2018-09-06T02:31:49.648Z,8.70
2018-09-06T02:34:17.734Z,7.70
2018-09-06T02:36:46.157Z,6.77
2018-09-06T02:39:14.062Z,7.20
2018-09-06T02:41:42.113Z,7.70
2018-09-06T02:44:09.893Z,6.73
2018-09-06T02:46:37.732Z,7.40
2018-09-06T02:49:05.825Z,7.60
2018-09-06T02:51:34.901Z,7.03
2018-09-06T02:54:03.047Z,8.03
2018-09-06T02:56:31.158Z,7.20
2018-09-06T02:58:59.328Z,7.70
2018-09-06T03:01:27.473Z,7.40
2018-09-06T03:03:55.422Z,7.97
2018-09-06T03:06:23.749Z,8.17
2018-09-06T03:08:52.262Z,7.10
2018-09-06T03:11:24.532Z,7.20
2018-09-06T03:13:54.757Z,7.17
2018-09-06T03:16:23.377Z,6.93
2018-09-06T03:18:52.026Z,7.50
2018-09-06T03:21:20.434Z,7.20
2018-09-06T03:23:49.414Z,7.50
2018-09-06T03:26:18.487Z,7.17
2018-09-06T03:28:48.034Z,7.70
2018-09-06T03:31:16.018Z,7.50
2018-09-06T03:33:45.324Z,6.90
2018-09-06T03:36:13.621Z,6.40
2018-09-06T03:38:41.780Z,7.53
2018-09-06T03:41:09.861Z,7.80
2018-09-06T03:43:38.062Z,7.00
2018-09-06T03:46:12.805Z,7.43
2018-09-06T03:48:40.620Z,6.70
2018-09-06T03:51:08.324Z,6.60
2018-09-06T03:53:36.428Z,7.07
2018-09-06T03:56:04.650Z,7.00
2018-09-06T03:58:32.881Z,6.90
2018-09-06T04:01:01.051Z,7.20
2018-09-06T04:03:29.557Z,7.30
2018-09-06T04:05:57.649Z,7.13
2018-09-06T04:08:26.444Z,7.10
2018-09-06T04:10:54.719Z,7.10
2018-09-06T04:13:23.540Z,7.03
2018-09-06T04:15:51.437Z,7.57
2018-09-06T04:18:20.859Z,7.10
2018-09-06T04:20:49.332Z,7.13
2018-09-06T04:23:17.742Z,6.50
2018-09-06T04:25:46.088Z,6.43
2018-09-06T04:28:14.333Z,6.60
2018-09-06T04:30:42.354Z,6.73
2018-09-06T04:33:10.380Z,6.27
2018-09-06T04:35:38.589Z,7.37
2018-09-06T04:38:06.914Z,7.20
2018-09-06T04:40:35.526Z,7.47
2018-09-06T04:43:03.484Z,7.10
2018-09-06T04:45:31.804Z,7.17
2018-09-06T04:48:00.059Z,7.93
2018-09-06T04:50:28.302Z,6.77
2018-09-06T04:52:56.982Z,7.10
2018-09-06T04:55:25.078Z,7.17
2018-09-06T04:57:53.422Z,7.40
2018-09-06T05:00:21.481Z,7.00
2018-09-06T05:02:49.490Z,6.67
2018-09-06T05:05:17.362Z,7.50
2018-09-06T05:07:45.520Z,7.47
2018-09-06T05:10:13.681Z,7.70
2018-09-06T05:12:42.034Z,7.40
2018-09-06T05:15:10.131Z,7.80
2018-09-06T05:17:38.488Z,7.97
2018-09-06T05:20:06.832Z,8.33
2018-09-06T05:22:35.261Z,8.50
2018-09-06T05:25:03.490Z,8.73
2018-09-06T05:27:31.584Z,9.43
2018-09-06T05:30:00.123Z,8.90
2018-09-06T05:32:28.296Z,8.17
2018-09-06T05:34:57.086Z,9.13
2018-09-06T05:37:24.913Z,8.40
2018-09-06T05:39:52.924Z,8.73
2018-09-06T05:42:20.942Z,8.57
2018-09-06T05:44:48.905Z,9.13
2018-09-06T05:47:16.884Z,7.63
2018-09-06T05:49:45.037Z,9.90
2018-09-06T05:52:13.022Z,8.90
2018-09-06T05:54:40.956Z,8.33
2018-09-06T05:57:09.176Z,8.63
2018-09-06T05:59:37.136Z,9.17
2018-09-06T06:02:05.105Z,9.13
2018-09-06T06:04:33.197Z,10.20
2018-09-06T06:07:01.749Z,10.23
2018-09-06T06:09:29.832Z,10.63
2018-09-06T06:11:57.910Z,11.27
2018-09-06T06:14:26.235Z,11.43
2018-09-06T06:17:00.946Z,11.13
2018-09-06T06:19:29.006Z,10.40
2018-09-06T06:21:57.238Z,12.07
2018-09-06T06:24:25.603Z,13.27
2018-09-06T06:26:53.789Z,13.13
2018-09-06T06:29:21.489Z,11.47
2018-09-06T06:31:49.713Z,12.97
2018-09-06T06:34:18.655Z,12.40
2018-09-06T06:36:46.608Z,12.43
2018-09-06T06:39:14.985Z,13.10
2018-09-06T06:41:43.017Z,13.20
2018-09-06T06:44:11.640Z,13.40
2018-09-06T06:46:39.977Z,12.40
2018-09-06T06:49:08.159Z,13.60
2018-09-06T06:51:37.105Z,12.67
2018-09-06T06:54:05.388Z,12.30
2018-09-06T06:56:34.224Z,12.90
2018-09-06T06:59:02.252Z,11.90
2018-09-06T07:01:30.981Z,12.73
2018-09-06T07:03:59.267Z,12.70
2018-09-06T07:06:27.329Z,11.47
2018-09-06T07:08:55.543Z,12.83
2018-09-06T07:11:23.776Z,11.93
2018-09-06T07:13:51.988Z,11.77
2018-09-06T07:16:19.923Z,13.17
2018-09-06T07:18:48.379Z,11.70
2018-09-06T07:21:31.272Z,11.70
2018-09-06T07:23:59.439Z,11.77
2018-09-06T07:26:27.558Z,11.53
2018-09-06T07:28:55.474Z,10.50
2018-09-06T07:31:23.508Z,12.07
2018-09-06T07:33:55.373Z,12.10
2018-09-06T07:36:23.471Z,12.83
2018-09-06T07:38:51.577Z,12.93
2018-09-06T07:41:20.064Z,11.57
2018-09-06T07:43:48.153Z,12.37
2018-09-06T07:46:16.261Z,12.20
2018-09-06T07:48:44.293Z,13.30
2018-09-06T07:51:12.422Z,13.40
2018-09-06T07:53:40.520Z,13.20
2018-09-06T07:56:08.765Z,13.90
2018-09-06T07:58:38.973Z,15.27
2018-09-06T08:01:07.183Z,16.03
2018-09-06T08:03:35.891Z,15.53
2018-09-06T08:06:03.832Z,15.10
2018-09-06T08:08:31.945Z,14.30
2018-09-06T08:11:00.589Z,13.27
2018-09-06T08:13:29.266Z,13.40
2018-09-06T08:15:58.779Z,14.30
2018-09-06T08:18:26.651Z,13.87
2018-09-06T08:20:54.763Z,16.67
2018-09-06T08:23:23.457Z,14.83
2018-09-06T08:25:51.487Z,17.80
2018-09-06T08:28:19.780Z,15.53
2018-09-06T08:30:47.932Z,15.60
2018-09-06T08:33:15.898Z,15.60
2018-09-06T08:35:44.093Z,15.37
2018-09-06T08:38:12.167Z,17.00
2018-09-06T08:40:40.124Z,18.17
2018-09-06T08:43:08.374Z,18.43
2018-09-06T08:45:36.340Z,17.10
2018-09-06T08:48:04.412Z,17.03
2018-09-06T08:50:32.181Z,17.10
2018-09-06T08:52:59.950Z,16.70
2018-09-06T08:55:27.933Z,16.17
2018-09-06T08:57:56.449Z,16.80
2018-09-06T09:00:24.484Z,15.77
2018-09-06T09:02:52.564Z,15.40
2018-09-06T09:05:20.737Z,14.57
2018-09-06T09:07:48.608Z,17.30
2018-09-06T09:10:16.811Z,16.00
2018-09-06T09:12:44.958Z,16.20
2018-09-06T09:15:13.347Z,15.03
2018-09-06T09:17:41.185Z,15.17
2018-09-06T09:20:09.269Z,15.50
2018-09-06T09:22:37.294Z,15.37
2018-09-06T09:25:05.678Z,15.00
2018-09-06T09:27:33.920Z,14.53
2018-09-06T09:30:01.965Z,15.37
2018-09-06T09:32:30.293Z,14.43
2018-09-06T09:34:58.594Z,14.90
2018-09-06T09:37:26.823Z,14.27
2018-09-06T09:39:54.788Z,14.47
2018-09-06T09:42:22.754Z,13.40
2018-09-06T09:44:50.893Z,14.27
2018-09-06T09:49:48.702Z,13.83
2018-09-06T09:52:16.885Z,14.77
2018-09-06T09:54:45.284Z,14.40
2018-09-06T09:57:13.797Z,14.13
2018-09-06T09:59:41.591Z,14.30
2018-09-06T10:02:15.014Z,14.30
2018-09-06T10:04:48.468Z,12.73
2018-09-06T10:07:22.027Z,14.23
2018-09-06T10:09:57.480Z,13.03
2018-09-06T10:12:26.190Z,13.33
2018-09-06T10:14:55.010Z,13.73
2018-09-06T10:17:22.881Z,13.50
2018-09-06T10:19:51.525Z,13.10
2018-09-06T10:22:19.774Z,11.30
2018-09-06T10:24:48.236Z,12.30
2018-09-06T10:27:16.246Z,11.40
2018-09-06T10:29:44.490Z,12.57
2018-09-06T10:32:12.838Z,11.00
2018-09-06T10:34:40.751Z,11.00
2018-09-06T10:37:08.543Z,10.80
2018-09-06T10:39:36.694Z,11.43
2018-09-06T10:42:04.499Z,9.53
2018-09-06T10:44:32.509Z,10.33
2018-09-06T10:47:00.896Z,9.70
2018-09-06T10:49:29.208Z,9.70
2018-09-06T10:51:57.434Z,10.10
2018-09-06T10:54:25.440Z,9.20
2018-09-06T10:56:53.408Z,9.50
2018-09-06T10:59:21.764Z,8.33
2018-09-06T11:01:50.247Z,9.30
2018-09-06T11:04:18.907Z,8.70
2018-09-06T11:06:47.029Z,9.07
2018-09-06T11:09:14.857Z,8.57
2018-09-06T11:11:43.150Z,8.00
2018-09-06T11:14:11.350Z,8.43
2018-09-06T11:16:40.158Z,7.90
2018-09-06T11:19:08.128Z,7.60
2018-09-06T11:21:37.074Z,7.70
2018-09-06T11:24:05.022Z,11.50
2018-09-06T11:26:33.662Z,11.37
2018-09-06T11:29:01.899Z,12.00
2018-09-06T11:31:30.279Z,11.47
2018-09-06T11:33:58.600Z,11.67
2018-09-06T11:36:28.057Z,12.27
2018-09-06T11:38:56.394Z,11.53
2018-09-06T11:41:24.832Z,10.83
2018-09-06T11:43:52.905Z,9.80
2018-09-06T11:46:20.835Z,9.73
2018-09-06T11:48:48.893Z,11.80
2018-09-06T11:51:17.444Z,10.20
2018-09-06T11:53:48.016Z,10.67
2018-09-06T11:56:16.241Z,12.40
2018-09-06T11:58:44.323Z,13.00
2018-09-06T12:01:12.506Z,11.93
2018-09-06T12:03:40.971Z,13.37
2018-09-06T12:06:09.368Z,13.40
2018-09-06T12:08:37.416Z,12.20
2018-09-06T12:11:05.776Z,13.50
2018-09-06T12:13:35.201Z,12.10
2018-09-06T12:16:03.204Z,11.80
2018-09-06T12:18:31.524Z,12.13
2018-09-06T12:21:00.201Z,11.63
2018-09-06T12:23:28.352Z,12.30
2018-09-06T12:25:56.468Z,12.10
2018-09-06T12:28:24.461Z,11.90
2018-09-06T12:30:52.820Z,12.30
2018-09-06T12:33:22.278Z,12.53
2018-09-06T12:35:50.406Z,12.37
2018-09-06T12:38:18.671Z,10.57
2018-09-06T12:40:47.087Z,11.10
2018-09-06T12:43:15.499Z,11.63
2018-09-06T12:45:44.001Z,11.30
2018-09-06T12:48:12.455Z,11.30
2018-09-06T12:50:43.499Z,10.67
2018-09-06T12:53:11.817Z,11.80
2018-09-06T12:55:40.028Z,12.10
2018-09-06T12:58:08.299Z,11.70
2018-09-06T13:00:36.422Z,11.10
2018-09-06T13:03:05.564Z,11.00
2018-09-06T13:05:34.017Z,10.97
2018-09-06T13:08:02.266Z,12.53
2018-09-06T13:10:32.206Z,11.53
2018-09-06T13:13:00.220Z,11.97
2018-09-06T13:15:29.577Z,12.00
2018-09-06T13:17:57.680Z,10.43
2018-09-06T13:20:25.783Z,11.90
2018-09-06T13:22:54.577Z,11.10
2018-09-06T13:25:23.246Z,11.80
2018-09-06T13:27:51.607Z,10.90
2018-09-06T13:30:19.828Z,11.37
2018-09-06T13:32:48.833Z,11.53
2018-09-06T13:35:16.955Z,11.60
2018-09-06T13:37:44.888Z,11.67
2018-09-06T13:40:13.239Z,10.63
2018-09-06T13:42:41.739Z,11.20
2018-09-06T13:45:09.912Z,11.83
2018-09-06T13:47:38.185Z,10.90
2018-09-06T13:50:06.404Z,11.13
2018-09-06T13:52:35.256Z,10.33
2018-09-06T13:58:02.548Z,9.93
2018-09-06T14:00:30.815Z,11.20
2018-09-06T14:03:00.504Z,11.17
2018-09-06T14:05:29.512Z,10.77
2018-09-06T14:07:57.802Z,10.70
2018-09-06T14:10:26.371Z,10.53
2018-09-06T14:12:55.394Z,10.37
2018-09-06T14:15:24.124Z,10.30
2018-09-06T14:17:52.604Z,10.57
2018-09-06T14:20:20.724Z,10.00
2018-09-06T14:22:49.531Z,10.70
2018-09-06T14:25:18.722Z,9.70
2018-09-06T14:27:47.123Z,11.17
2018-09-06T14:30:16.094Z,10.60
2018-09-06T14:32:45.317Z,11.13
2018-09-06T14:35:14.125Z,10.63
2018-09-06T14:37:41.955Z,10.53
2018-09-06T14:40:10.039Z,10.33
2018-09-06T14:42:38.067Z,11.00
2018-09-06T14:45:06.685Z,9.93
2018-09-06T14:47:34.751Z,10.53
2018-09-06T14:50:03.177Z,11.00
2018-09-06T14:52:31.395Z,10.60
2018-09-06T14:54:59.349Z,11.40
2018-09-06T14:57:27.768Z,10.67
2018-09-06T14:59:55.907Z,10.17
2018-09-06T15:02:24.037Z,11.07
2018-09-06T15:04:51.934Z,9.73
2018-09-06T15:07:20.569Z,11.03
2018-09-06T15:09:49.038Z,10.07
2018-09-06T15:12:17.416Z,10.23
2018-09-06T15:14:45.963Z,10.87
2018-09-06T15:17:13.980Z,10.63
2018-09-06T15:19:42.007Z,10.37
2018-09-06T15:22:10.133Z,10.70
2018-09-06T15:24:39.182Z,10.20
2018-09-06T15:27:07.266Z,10.77
2018-09-06T15:29:35.290Z,10.87
2018-09-06T15:32:03.860Z,10.47
2018-09-06T15:34:32.235Z,11.17
2018-09-06T15:37:00.795Z,11.13
2018-09-06T15:39:29.767Z,11.40
2018-09-06T15:41:58.030Z,10.17
2018-09-06T15:44:26.215Z,10.20
2018-09-06T15:46:54.656Z,10.27
2018-09-06T15:49:23.045Z,10.73
2018-09-06T15:51:51.092Z,10.57
2018-09-06T15:54:19.104Z,13.67
2018-09-06T15:56:47.038Z,13.27
2018-09-06T15:59:15.592Z,10.83
2018-09-06T16:01:43.648Z,11.27
2018-09-06T16:09:00.112Z,10.23
2018-09-06T16:11:28.551Z,10.20
2018-09-06T16:13:58.053Z,12.00
2018-09-06T16:16:26.149Z,11.67
2018-09-06T16:18:53.955Z,13.33
2018-09-06T16:21:21.887Z,17.83
2018-09-06T16:23:50.270Z,17.60
2018-09-06T16:26:18.343Z,18.73
2018-09-06T16:28:46.763Z,16.30
2018-09-06T16:31:14.628Z,17.80
2018-09-06T16:33:42.852Z,14.23
2018-09-06T16:36:11.047Z,23.70
2018-09-06T16:38:39.004Z,19.77
2018-09-06T16:41:07.042Z,18.27
2018-09-06T16:43:34.781Z,15.40
2018-09-06T16:46:02.764Z,14.63
2018-09-06T16:48:30.826Z,13.70
2018-09-06T16:50:59.008Z,13.10
2018-09-06T16:53:27.196Z,12.97
2018-09-06T16:55:55.231Z,12.30
2018-09-06T16:58:23.260Z,12.27
2018-09-06T17:00:51.455Z,11.80
2018-09-06T17:03:19.538Z,12.70
2018-09-06T17:05:47.852Z,12.10
2018-09-06T17:08:15.769Z,11.50
2018-09-06T17:10:44.184Z,10.83
2018-09-06T17:13:12.380Z,10.27
2018-09-06T17:15:40.878Z,10.17
2018-09-06T17:18:08.810Z,9.80
2018-09-06T17:20:36.741Z,9.97
2018-09-06T17:23:04.676Z,9.23
2018-09-06T17:25:33.168Z,9.23
2018-09-06T17:28:02.069Z,9.63
2018-09-06T17:30:31.530Z,10.53
2018-09-06T17:33:00.552Z,9.30
2018-09-06T17:35:29.354Z,9.43
2018-09-06T17:37:57.832Z,9.70
2018-09-06T17:40:26.310Z,9.70
2018-09-06T17:42:54.654Z,8.80
2018-09-06T17:45:24.088Z,9.80
2018-09-06T17:47:53.291Z,10.17
2018-09-06T17:50:22.116Z,10.20
2018-09-06T17:52:51.176Z,9.40
2018-09-06T17:55:19.337Z,10.27
2018-09-06T17:57:47.263Z,9.70
2018-09-06T18:00:15.708Z,9.90
2018-09-06T18:02:44.100Z,10.00
2018-09-06T18:05:11.989Z,9.67
2018-09-06T18:07:43.036Z,9.67
2018-09-06T18:10:11.300Z,9.50
2018-09-06T18:12:39.397Z,10.67
2018-09-06T18:15:07.617Z,9.97
2018-09-06T18:17:36.244Z,10.53
2018-09-06T18:20:04.627Z,10.10
2018-09-06T18:22:34.266Z,10.53
2018-09-06T18:25:02.385Z,9.40
2018-09-06T18:27:30.916Z,10.07
2018-09-06T18:29:59.441Z,9.80
2018-09-06T18:32:28.394Z,9.60
2018-09-06T18:34:58.187Z,10.30
2018-09-06T18:37:26.519Z,10.07
2018-09-06T18:39:54.292Z,9.40
2018-09-06T18:42:22.451Z,10.10
2018-09-06T18:44:50.591Z,9.30
2018-09-06T18:47:19.643Z,8.93
2018-09-06T18:49:47.724Z,9.50
2018-09-06T18:52:15.686Z,9.00
2018-09-06T18:54:44.254Z,9.63
2018-09-06T18:57:13.039Z,9.40
2018-09-06T18:59:42.085Z,9.60
2018-09-06T19:02:10.564Z,10.50
2018-09-06T19:04:39.208Z,10.03
2018-09-06T19:07:07.210Z,12.00
2018-09-06T19:09:35.195Z,13.47
2018-09-06T19:12:03.789Z,10.90
2018-09-06T19:14:32.224Z,10.80
2018-09-06T19:17:00.491Z,11.17
2018-09-06T19:19:28.919Z,10.97
2018-09-06T19:21:57.555Z,11.17
2018-09-06T19:24:25.803Z,11.80
2018-09-06T19:26:54.269Z,10.67
2018-09-06T19:29:22.689Z,10.63
2018-09-06T19:31:51.111Z,10.70
2018-09-06T19:34:19.397Z,10.30
2018-09-06T19:36:48.670Z,17.93
2018-09-06T19:39:17.117Z,17.33
2018-09-06T19:41:45.546Z,15.70
2018-09-06T19:44:14.179Z,18.10
2018-09-06T19:46:42.730Z,20.37
2018-09-06T19:49:11.742Z,17.30
2018-09-06T19:51:40.522Z,16.57
2018-09-06T19:54:08.804Z,17.13
2018-09-06T19:56:37.361Z,15.43
2018-09-06T19:59:05.379Z,13.00
2018-09-06T20:01:33.783Z,14.77
2018-09-06T20:04:01.904Z,14.10
2018-09-06T20:06:29.807Z,12.67
2018-09-06T20:08:58.250Z,11.17
2018-09-06T20:11:26.590Z,11.87
2018-09-06T20:13:55.509Z,11.43
2018-09-06T20:16:23.344Z,12.13
2018-09-06T20:18:51.471Z,13.10
2018-09-06T20:21:20.513Z,12.27
2018-09-06T20:23:48.929Z,11.60
2018-09-06T20:26:16.955Z,12.33
2018-09-06T20:28:44.822Z,11.13
2018-09-06T20:31:13.012Z,13.30
2018-09-06T20:33:41.040Z,21.90
2018-09-06T20:36:08.939Z,23.90
2018-09-06T20:38:37.245Z,23.47
2018-09-06T20:41:05.312Z,20.30
2018-09-06T20:43:33.223Z,15.53
2018-09-06T20:46:01.847Z,23.30
2018-09-06T20:48:30.015Z,42.10
2018-09-06T20:50:58.746Z,30.27
2018-09-06T20:53:26.680Z,14.13
2018-09-06T20:55:54.507Z,18.40
2018-09-06T20:58:22.796Z,39.70
2018-09-06T21:00:50.719Z,37.60
2018-09-06T21:03:18.656Z,40.13
2018-09-06T21:05:46.784Z,43.47
2018-09-06T21:08:14.903Z,32.37
2018-09-06T21:10:42.804Z,26.10
2018-09-06T21:13:11.544Z,33.97
2018-09-06T21:15:39.507Z,22.40
2018-09-06T21:18:07.396Z,20.67
2018-09-06T21:20:35.296Z,18.60
2018-09-06T21:23:10.166Z,20.53
2018-09-06T21:25:38.412Z,35.07
2018-09-06T21:28:06.572Z,35.93
2018-09-06T21:30:34.721Z,27.77
2018-09-06T21:33:02.792Z,27.03
2018-09-06T21:35:30.638Z,16.97
2018-09-06T21:37:58.942Z,12.70
2018-09-06T21:40:27.393Z,14.70
2018-09-06T21:42:55.246Z,13.50
2018-09-06T21:45:23.139Z,13.50
2018-09-06T21:47:51.344Z,12.57
2018-09-06T21:50:19.531Z,12.97
2018-09-06T21:52:47.457Z,12.10
2018-09-06T21:55:15.399Z,12.57
2018-09-06T21:57:43.320Z,11.90
2018-09-06T22:00:11.400Z,12.60
2018-09-06T22:02:45.199Z,12.53
2018-09-06T22:05:13.110Z,12.27
2018-09-06T22:07:41.223Z,12.00
2018-09-06T22:10:09.304Z,11.70
2018-09-06T22:12:36.968Z,11.90
2018-09-06T22:15:04.936Z,11.90
2018-09-06T22:17:32.883Z,12.40
2018-09-06T22:20:01.021Z,11.33
2018-09-06T22:22:29.248Z,11.43
2018-09-06T22:24:57.349Z,11.83
2018-09-06T22:27:25.124Z,11.53
2018-09-06T22:29:53.083Z,12.40
2018-09-06T22:32:20.997Z,12.20
2018-09-06T22:34:48.842Z,12.10
2018-09-06T22:37:16.732Z,13.30
2018-09-06T22:39:44.592Z,11.93
2018-09-06T22:42:12.468Z,12.27
2018-09-06T22:44:40.537Z,12.00
2018-09-06T22:47:08.503Z,11.77
2018-09-06T22:49:36.409Z,12.60
2018-09-06T22:52:04.734Z,12.83
2018-09-06T22:54:32.757Z,11.67
2018-09-06T22:57:00.894Z,12.10
2018-09-06T22:59:28.716Z,12.60
2018-09-06T23:01:57.801Z,13.20
2018-09-06T23:04:26.194Z,13.53
2018-09-06T23:06:54.057Z,12.57
2018-09-06T23:09:22.198Z,12.80
2018-09-06T23:11:50.200Z,12.93
2018-09-06T23:14:18.567Z,12.80
2018-09-06T23:16:46.368Z,12.17
2018-09-06T23:19:14.176Z,13.23
2018-09-06T23:21:42.029Z,12.33
2018-09-06T23:24:10.161Z,12.60
2018-09-06T23:26:38.326Z,13.63
2018-09-06T23:29:06.178Z,12.70
2018-09-06T23:31:36.917Z,13.23
2018-09-06T23:34:04.758Z,13.30
2018-09-06T23:36:32.960Z,13.50
2018-09-06T23:39:01.172Z,13.03
2018-09-06T23:41:29.254Z,14.73
2018-09-06T23:43:57.486Z,14.00
2018-09-06T23:46:25.477Z,13.10
2018-09-06T23:48:53.462Z,13.53
2018-09-06T23:51:21.627Z,12.40
2018-09-06T23:53:49.767Z,13.70
2018-09-06T23:56:17.518Z,13.57
2018-09-06T23:58:45.734Z,13.60
